Time;durP1;ratioP1;P1;durP2;ratioP2;P2;SDS_P1;SDS_P2;PMS_P1;PMS_P2;Temp;Humidity;BMP_temperature;BMP_pressure;BME280_temperature;BME280_humidity;BME280_pressure;Samples;Min_cycle;Max_cycle;Signal;HPM_P1;HPM_P2
2021/05/19 00:00:45;;;;;;;;;;;;;;;;;;5075091;28;19920;-70
2021/05/19 00:03:11;;;;;;;;;;;;;;;;;;5073047;28;19916;-70
2021/05/19 00:05:37;;;;;;;;;;;;;;;;;;5075525;28;19909;-69
2021/05/19 00:08:03;;;;;;;;;;;;;;;;;;5079720;28;19912;-69
2021/05/19 00:10:29;;;;;;;;;;;;;;;;;;5072748;28;19923;-69
2021/05/19 00:12:55;;;;;;;;;;;;;;;;;;5082795;28;19980;-65
2021/05/19 00:15:20;;;;;;;;;;;;;;;;;;5086763;28;19916;-65
2021/05/19 00:17:46;;;;;;;;;;;;;;;;;;5089296;28;20010;-70
2021/05/19 00:20:12;;;;;;;;;;;;;;;;;;5075251;28;20007;-69
2021/05/19 00:22:38;;;;;;;;;;;;;;;;;;5089356;28;19908;-69
2021/05/19 00:25:04;;;;;;;;;;;;;;;;;;5085341;28;20022;-69
2021/05/19 00:27:30;;;;;;;;;;;;;;;;;;5088914;28;19908;-67
2021/05/19 00:29:56;;;;;;;;;;;;;;;;;;5086927;28;20290;-69
2021/05/19 00:32:22;;;;;;;;;;;;;;;;;;5086677;28;19912;-71
2021/05/19 00:34:48;;;;;;;;;;;;;;;;;;5088781;28;19916;-70
2021/05/19 00:37:14;;;;;;;;;;;;;;;;;;5079878;28;20003;-69
2021/05/19 00:39:40;;;;;;;;;;;;;;;;;;5076544;28;19948;-69
2021/05/19 00:42:06;;;;;;;;;;;;;;;;;;5077273;28;20378;-69
2021/05/19 00:44:32;;;;;;;;;;;;;;;;;;5075698;28;19948;-69
2021/05/19 00:46:58;;;;;;;;;;;;;;;;;;5078371;28;19954;-70
2021/05/19 00:49:24;;;;;;;;;;;;;;;;;;5075494;28;19951;-69
2021/05/19 00:51:50;;;;;;;;;;;;;;;;;;5072161;28;20283;-69
2021/05/19 00:54:16;;;;;;;;;;;;;;;;;;5071608;28;19920;-67
2021/05/19 00:56:42;;;;;;;;;;;;;;;;;;5075208;28;19927;-70
2021/05/19 00:59:08;;;;;;;;;;;;;;;;;;5076656;28;19909;-69
2021/05/19 01:01:36;;;;;;;;;;;;;;;;;;5074609;28;19909;-70
2021/05/19 01:04:02;;;;;;;;;;;;;;;;;;5093351;28;19915;-69
2021/05/19 01:06:45;;;;;;;;;;;;;;;;;;5093015;28;19908;-68
2021/05/19 01:11:55;;;;;;;;;;;;;;;;;;5068654;28;19919;-66
2021/05/19 01:14:21;;;;;;;;;;;;;;;;;;5092841;28;20269;-67
2021/05/19 01:16:47;;;;;;;;;;;;;;;;;;5089706;28;19935;-69
2021/05/19 01:19:13;;;;;;;;;;;;;;;;;;5081316;28;19915;-66
2021/05/19 01:21:39;;;;;;;;;;;;;;;;;;5067632;28;20396;-65
2021/05/19 01:24:06;;;;;;;;;;;;;;;;;;5089251;28;20361;-69
2021/05/19 01:26:32;;;;;;;;;;;;;;;;;;5087323;28;19912;-68
2021/05/19 01:28:58;;;;;;;;;;;;;;;;;;5087855;28;20421;-67
2021/05/19 01:31:23;;;;;;;;;;;;;;;;;;5088671;28;19915;-69
2021/05/19 01:33:49;;;;;;;;;;;;;;;;;;5086167;28;20015;-67
2021/05/19 01:36:16;;;;;;;;;;;410.20;1971.20;;;;;;5071205;28;20062;-68
2021/05/19 01:38:41;;;;;;;;;;;;;;;;;;5085739;28;19919;-69
2021/05/19 01:41:07;;;;;;;;;;;410.20;2073.60;;;;;;5089578;28;20002;-67
2021/05/19 01:43:33;;;;;;;;;;;410.20;2048.00;;;;;;5086979;28;19909;-66
2021/05/19 01:46:00;;;;;;;;;;;410.30;2022.40;;;;;;5088598;28;19908;-70
2021/05/19 01:48:26;;;;;;;;;;;410.40;1945.60;;;;;;5088919;28;19912;-69
2021/05/19 01:50:52;;;;;;;;;;;410.20;1945.60;;;;;;5082459;28;19923;-65
2021/05/19 01:53:17;;;;;;;;;;;410.20;1971.20;;;;;;5071651;28;19930;-67
2021/05/19 01:55:43;;;;;;;;;;;;;;;;;;5070870;28;19979;-64
2021/05/19 01:58:09;;;;;;;;;;;;;;;;;;5066459;28;19916;-65
2021/05/19 02:00:35;;;;;;;;;;;;;;;;;;5054353;28;19931;-68
2021/05/19 02:03:02;;;;;;;;;;;;;;;;;;5056650;28;20430;-69
2021/05/19 02:05:28;;;;;;;;;;;;;;;;;;5082916;28;19931;-64
2021/05/19 02:07:54;;;;;;;;;;;;;;;;;;5082301;28;19917;-70
2021/05/19 02:10:20;;;;;;;;;;;;;;;;;;5073699;28;20427;-64
2021/05/19 02:12:46;;;;;;;;;;;;;;;;;;5082675;28;19990;-69
2021/05/19 02:15:12;;;;;;;;;;;;;;;;;;5057741;28;20068;-70
2021/05/19 02:17:38;;;;;;;;;;;;;;;;;;5057293;28;19921;-69
2021/05/19 02:20:04;;;;;;;;;;;;;;;;;;5062263;28;19963;-70
2021/05/19 02:22:29;;;;;;;;;;;;;;;;;;5056887;28;20360;-68
2021/05/19 02:24:55;;;;;;;;;;;;;;;;;;5058077;28;19920;-69
2021/05/19 02:27:21;;;;;;;;;;;;;;;;;;5056879;28;19916;-68
2021/05/19 02:29:47;;;;;;;;;;;;;;;;;;5082806;28;19915;-68
2021/05/19 02:32:13;;;;;;;;;;;;;;;;;;5092460;28;19915;-68
2021/05/19 02:34:39;;;;;;;;;;;;;;;;;;5094032;28;20290;-67
2021/05/19 02:37:05;;;;;;;;;;;;;;;;;;5091395;28;21374;-70
2021/05/19 02:39:31;;;;;;;;;;;;;;;;;;5093866;28;19908;-65
2021/05/19 02:41:57;;;;;;;;;;;;;;;;;;5090483;28;19908;-71
2021/05/19 02:44:23;;;;;;;;;;;;;;;;;;5082713;28;19915;-69
2021/05/19 02:46:49;;;;;;;;;;;;;;;;;;5092519;28;19912;-65
2021/05/19 02:49:15;;;;;;;;;;;;;;;;;;5092612;28;20462;-66
2021/05/19 02:51:41;;;;;;;;;;;;;;;;;;5093671;28;19908;-68
2021/05/19 02:54:08;;;;;;;;;;;;;;;;;;5090743;28;19926;-68
2021/05/19 02:56:33;;;;;;;;;;;410.30;2227.20;;;;;;5093632;28;19920;-70
2021/05/19 02:58:59;;;;;;;;;;;409.90;2150.40;;;;;;5091058;28;19912;-69
2021/05/19 03:01:24;;;;;;;;;;;409.90;1996.80;;;;;;5081153;28;19914;-70
2021/05/19 03:03:50;;;;;;;;;;;410.00;1996.80;;;;;;5084349;28;19908;-67
2021/05/19 03:06:16;;;;;;;;;;;409.80;2022.40;;;;;;5092917;28;20342;-68
2021/05/19 03:08:41;;;;;;;;;;;410.00;2176.00;;;;;;5095676;28;19908;-66
2021/05/19 03:11:08;;;;;;;;;;;410.00;1971.20;;;;;;5095468;28;19908;-66
2021/05/19 03:13:34;;;;;;;;;;;;;;;;;;5095566;28;19953;-66
2021/05/19 03:15:59;;;;;;;;;;;409.60;2022.40;;;;;;5095366;28;20369;-66
2021/05/19 03:18:25;;;;;;;;;;;;;;;;;;5090218;28;20011;-65
2021/05/19 03:20:51;;;;;;;;;;;;;;;;;;5087054;28;19916;-66
2021/05/19 03:23:17;;;;;;;;;;;;;;;;;;5095391;28;20266;-72
2021/05/19 03:25:43;;;;;;;;;;;;;;;;;;5094958;28;19912;-70
2021/05/19 03:28:09;;;;;;;;;;;;;;;;;;5095226;28;19915;-70
2021/05/19 03:30:35;;;;;;;;;;;;;;;;;;5094976;28;19931;-65
2021/05/19 03:33:01;;;;;;;;;;;;;;;;;;5095429;28;20342;-70
2021/05/19 03:35:27;;;;;;;;;;;;;;;;;;5094632;28;20015;-70
2021/05/19 03:37:53;;;;;;;;;;;;;;;;;;5095093;28;19998;-67
2021/05/19 03:40:19;;;;;;;;;;;;;;;;;;5094750;28;19916;-69
2021/05/19 03:42:44;;;;;;;;;;;;;;;;;;5095071;28;19912;-70
2021/05/19 03:45:11;;;;;;;;;;;;;;;;;;5094829;28;19908;-70
2021/05/19 03:47:37;;;;;;;;;;;;;;;;;;5076477;28;20305;-69
2021/05/19 03:50:02;;;;;;;;;;;;;;;;;;5094915;28;19908;-69
2021/05/19 03:52:28;;;;;;;;;;;;;;;;;;5076483;28;19916;-68
2021/05/19 03:54:54;;;;;;;;;;;;;;;;;;5094485;28;19928;-67
2021/05/19 03:57:20;;;;;;;;;;;;;;;;;;5094627;28;19908;-68
2021/05/19 03:59:46;;;;;;;;;;;;;;;;;;5094528;28;20340;-66
2021/05/19 04:02:12;;;;;;;;;;;;;;;;;;5094385;28;19997;-64
2021/05/19 04:04:38;;;;;;;;;;;;;;;;;;5094472;28;19965;-69
2021/05/19 04:07:04;;;;;;;;;;;;;;;;;;5094504;28;19955;-68
2021/05/19 04:09:30;;;;;;;;;;;;;;;;;;5094289;28;19961;-69
2021/05/19 04:11:56;;;;;;;;;;;;;;;;;;5094396;28;19936;-69
2021/05/19 04:14:21;;;;;;;;;;;;;;;;;;5094542;28;19941;-69
2021/05/19 04:16:47;;;;;;;;;;;;;;;;;;5093965;28;19916;-70
2021/05/19 04:19:13;;;;;;;;;;;;;;;;;;5094281;28;19911;-64
2021/05/19 04:21:39;;;;;;;;;;;;;;;;;;5094160;28;19912;-69
2021/05/19 04:24:05;;;;;;;;;;;;;;;;;;5094049;28;19919;-70
2021/05/19 04:26:31;;;;;;;;;;;;;;;;;;5094135;28;20422;-70
2021/05/19 04:28:57;;;;;;;;;;;;;;;;;;5094298;28;19912;-70
2021/05/19 04:31:23;;;;;;;;;;;;;;;;;;5093846;28;20004;-65
2021/05/19 04:33:49;;;;;;;;;;;;;;;;;;5093930;28;19916;-71
2021/05/19 04:36:16;;;;;;;;;;;;;;;;;;5093467;28;19920;-68
2021/05/19 04:38:42;;;;;;;;;;;;;;;;;;5093746;28;19915;-69
2021/05/19 04:41:07;;;;;;;;;;;;;;;;;;5093863;28;20208;-65
2021/05/19 04:43:33;;;;;;;;;;;;;;;;;;5093726;28;20425;-64
2021/05/19 04:45:59;;;;;;;;;;;;;;;;;;5093793;28;19908;-69
2021/05/19 04:48:27;;;;;;;;;;;;;;;;;;5093665;28;20278;-69
2021/05/19 04:50:53;;;;;;;;;;;;;;;;;;5093711;28;19915;-64
2021/05/19 04:53:18;;;;;;;;;;;;;;;;;;5093303;28;19920;-65
2021/05/19 04:55:44;;;;;;;;;;;;;;;;;;5093250;28;20027;-68
2021/05/19 04:58:10;;;;;;;;;;;410.40;1894.40;;;;;;5093559;28;20343;-68
2021/05/19 05:00:36;;;;;;;;;;;410.50;1894.40;;;;;;5093495;28;19908;-68
2021/05/19 05:03:02;;;;;;;;;;;;;;;;;;5093203;28;20331;-64
2021/05/19 05:05:28;;;;;;;;;;;;;;;;;;5093201;28;19908;-64
2021/05/19 05:07:54;;;;;;;;;;;;;;;;;;5093345;28;19912;-69
2021/05/19 05:10:20;;;;;;;;;;;435.20;1894.40;;;;;;5093491;28;19961;-69
2021/05/19 05:12:45;;;;;;;;;;;410.50;1868.80;;;;;;5093205;28;19930;-69
2021/05/19 05:15:11;;;;;;;;;;;410.40;1868.80;;;;;;5093314;28;20400;-65
2021/05/19 05:17:37;;;;;;;;;;;;;;;;;;5093297;28;19915;-69
2021/05/19 05:20:07;;;;;;;;;;;435.40;1843.20;;;;;;5074026;28;19909;-69
2021/05/19 05:22:33;;;;;;;;;;;;;;;;;;5084268;28;19961;-69
2021/05/19 05:24:58;;;;;;;;;;;435.80;1843.20;;;;;;5093032;28;19916;-69
2021/05/19 05:27:24;;;;;;;;;;;;;;;;;;5093138;28;19965;-65
2021/05/19 05:29:50;;;;;;;;;;;;;;;;;;5093045;28;19948;-68
2021/05/19 05:32:16;;;;;;;;;;;;;;;;;;5093068;28;19951;-69
2021/05/19 05:34:42;;;;;;;;;;;;;;;;;;5093032;28;19908;-69
2021/05/19 05:37:08;;;;;;;;;;;;;;;;;;5092854;28;19977;-68
2021/05/19 05:39:34;;;;;;;;;;;;;;;;;;5092938;28;19908;-69
2021/05/19 05:42:00;;;;;;;;;;;;;;;;;;5092683;28;20316;-70
2021/05/19 05:44:26;;;;;;;;;;;;;;;;;;5092798;28;19908;-68
2021/05/19 05:46:52;;;;;;;;;;;;;;;;;;5092743;28;19908;-69
2021/05/19 05:49:17;;;;;;;;;;;;;;;;;;5096291;28;19999;-69
2021/05/19 05:51:43;;;;;;;;;;;;;;;;;;5097138;28;20024;-70
2021/05/19 05:54:11;;;;;;;;;;;;;;;;;;5096568;28;19920;-67
2021/05/19 05:56:37;;;;;;;;;;;;;;;;;;5078657;28;19924;-72
2021/05/19 05:59:03;;;;;;;;;;;;;;;;;;5096882;28;20247;-71
2021/05/19 06:01:29;;;;;;;;;;;;;;;;;;5096633;28;20371;-66
2021/05/19 06:03:55;;;;;;;;;;;;;;;;;;5096723;28;19931;-72
2021/05/19 06:06:21;;;;;;;;;;;;;;;;;;5096592;28;19912;-66
2021/05/19 06:08:47;;;;;;;;;;;;;;;;;;5096651;28;20003;-71
2021/05/19 06:11:13;;;;;;;;;;;;;;;;;;5096561;28;20274;-65
2021/05/19 06:13:39;;;;;;;;;;;;;;;;;;5096602;28;19908;-72
2021/05/19 06:16:05;;;;;;;;;;;;;;;;;;5077973;28;19920;-71
2021/05/19 06:18:30;;;;;;;;;;;;;;;;;;5096648;28;20368;-72
2021/05/19 06:20:56;;;;;;;;;;;;;;;;;;5096455;28;19908;-71
2021/05/19 06:23:22;;;;;;;;;;;;;;;;;;5096258;28;19965;-69
2021/05/19 06:25:48;;;;;;;;;;;461.60;1894.40;;;;;;5096466;28;19923;-68
2021/05/19 06:28:14;;;;;;;;;;;;;;;;;;5096636;28;19916;-68
2021/05/19 06:30:40;;;;;;;;;;;;;;;;;;5096382;28;20373;-63
2021/05/19 06:33:05;;;;;;;;;;;486.40;1740.80;;;;;;5096034;28;19984;-65
2021/05/19 06:35:31;;;;;;;;;;;486.40;1740.80;;;;;;5096048;28;20370;-64
2021/05/19 06:37:56;;;;;;;;;;;486.40;1689.60;;;;;;5096020;28;19908;-64
2021/05/19 06:40:22;;;;;;;;;;;;;;;;;;5096203;28;19908;-68
2021/05/19 06:42:49;;;;;;;;;;;;;;;;;;5095945;28;19916;-66
2021/05/19 06:45:15;;;;;;;;;;;;;;;;;;5096117;28;19961;-64
2021/05/19 06:47:41;;;;;;;;;;;;;;;;;;5095917;28;19912;-68
2021/05/19 06:50:07;;;;;;;;;;;;;;;;;;5096040;28;20191;-65
2021/05/19 06:52:33;;;;;;;;;;;;;;;;;;5095790;28;19959;-64
2021/05/19 06:55:01;;;;;;;;;;;;;;;;;;5095542;28;20394;-66
2021/05/19 06:57:27;;;;;;;;;;;;;;;;;;5095652;28;19916;-64
2021/05/19 06:59:53;;;;;;;;;;;512.30;1459.20;;;;;;5094942;28;19908;-67
2021/05/19 07:02:18;;;;;;;;;;;512.20;1484.80;;;;;;5095609;28;19908;-63
2021/05/19 07:04:44;;;;;;;;;;;512.50;1433.60;;;;;;5095673;28;20296;-69
2021/05/19 07:07:09;;;;;;;;;;;512.60;1459.20;;;;;;5095676;28;19919;-67
2021/05/19 07:09:36;;;;;;;;;;;;;;;;;;5080488;28;19913;-64
2021/05/19 07:12:02;;;;;;;;;;;;;;;;;;5088161;28;19968;-68
2021/05/19 07:14:27;;;;;;;;;;;512.90;1612.80;;;;;;5087344;28;19916;-63
2021/05/19 07:16:54;;;;;;;;;;;512.90;1459.20;;;;;;5081999;28;19924;-65
2021/05/19 07:19:20;;;;;;;;;;;512.70;1433.60;;;;;;5088095;28;19914;-72
2021/05/19 07:21:46;;;;;;;;;;;512.80;1433.60;;;;;;5083280;28;19915;-68
2021/05/19 07:24:12;;;;;;;;;;;512.90;1433.60;;;;;;5085891;28;19912;-72
2021/05/19 07:26:41;;;;;;;;;;;512.90;1459.20;;;;;;5085156;28;19921;-67
2021/05/19 07:29:07;;;;;;;;;;;512.90;1459.20;;;;;;5084321;28;19909;-72
2021/05/19 07:31:33;;;;;;;;;;;512.90;1459.20;;;;;;5086699;28;20007;-69
2021/05/19 07:34:00;;;;;;;;;;;512.70;1484.80;;;;;;5082139;28;19932;-68
2021/05/19 07:36:26;;;;;;;;;;;512.90;1459.20;;;;;;5087651;28;20358;-68
2021/05/19 07:38:51;;;;;;;;;;;537.70;1484.80;;;;;;5081919;28;20007;-65
2021/05/19 07:41:17;;;;;;;;;;;537.60;1484.80;;;;;;5086240;28;20282;-67
2021/05/19 07:43:42;;;;;;;;;;;512.90;1459.20;;;;;;5083862;28;19948;-70
2021/05/19 07:46:08;;;;;;;;;;;512.60;1459.20;;;;;;5084001;28;19954;-67
2021/05/19 07:48:34;;;;;;;;;;;512.90;1459.20;;;;;;5085749;28;19957;-68
2021/05/19 07:50:59;;;;;;;;;;;512.90;1459.20;;;;;;5081867;28;19908;-63
2021/05/19 07:53:25;;;;;;;;;;;537.70;1484.80;;;;;;5086927;28;19916;-69
2021/05/19 07:55:57;;;;;;;;;;;537.80;1433.60;;;;;;5081747;28;20287;-68
2021/05/19 07:58:30;;;;;;;;;;;512.90;1433.60;;;;;;5086624;28;19909;-68
2021/05/19 08:03:21;;;;;;;;;;;537.80;1459.20;;;;;;5068300;28;19917;-67
2021/05/19 08:05:47;;;;;;;;;;;;;;;;;;5053883;28;20043;-67
2021/05/19 08:08:13;;;;;;;;;;;;;;;;;;5081898;28;19916;-68
2021/05/19 08:10:41;;;;;;;;;;;;;;;;;;5087812;28;19909;-68
2021/05/19 08:13:06;;;;;;;;;;;;;;;;;;5083687;28;19909;-65
2021/05/19 08:15:32;;;;;;;;;;;537.90;1510.40;;;;;;5086022;28;20376;-68
2021/05/19 08:17:58;;;;;;;;;;;;;;;;;;5086369;28;19947;-66
2021/05/19 08:20:24;;;;;;;;;;;;;;;;;;5083983;28;20058;-70
2021/05/19 08:22:50;;;;;;;;;;;;;;;;;;5088031;28;20370;-70
2021/05/19 08:25:16;;;;;;;;;;;538.40;1433.60;;;;;;5082085;28;19919;-70
2021/05/19 08:27:41;;;;;;;;;;;538.20;1433.60;;;;;;5083995;28;19908;-64
2021/05/19 08:30:10;;;;;;;;;;;;;;;;;;5055784;28;19916;-67
2021/05/19 08:32:36;;;;;;;;;;;538.00;1459.20;;;;;;5054671;28;19932;-66
2021/05/19 08:35:02;;;;;;;;;;;537.90;1459.20;;;;;;5057731;28;20360;-68
2021/05/19 08:37:27;;;;;;;;;;;537.80;1459.20;;;;;;5078089;28;19909;-68
2021/05/19 08:39:53;;;;;;;;;;;537.80;1484.80;;;;;;5083061;28;19912;-68
2021/05/19 08:42:18;;;;;;;;;;;512.70;1510.40;;;;;;5077881;28;19909;-67
2021/05/19 08:44:44;;;;;;;;;;;512.70;1510.40;;;;;;5080858;28;20014;-69
2021/05/19 08:47:11;;;;;;;;;;;;;;;;;;5080390;28;19936;-68
2021/05/19 08:49:39;;;;;;;;;;;512.30;1561.60;;;;;;5079021;28;19915;-69
2021/05/19 08:52:05;;;;;;;;;;;512.60;1536.00;;;;;;5081485;28;20293;-68
2021/05/19 08:54:30;;;;;;;;;;;512.50;1536.00;;;;;;5077605;28;19927;-69
2021/05/19 08:56:56;;;;;;;;;;;;;;;;;;5082790;28;19921;-69
2021/05/19 08:59:22;;;;;;;;;;;;;;;;;;5080392;28;19952;-69
2021/05/19 09:01:49;;;;;;;;;;;;;;;;;;5086197;28;19939;-66
2021/05/19 09:04:16;;;;;;;;;;;;;;;;;;5077820;28;19924;-66
2021/05/19 09:06:42;;;;;;;;;;;;;;;;;;5076344;28;19948;-66
2021/05/19 09:09:08;;;;;;;;;;;;;;;;;;5078106;28;19931;-65
2021/05/19 09:11:34;;;;;;;;;;;;;;;;;;5077218;28;19962;-67
2021/05/19 09:14:00;;;;;;;;;;;;;;;;;;5075888;28;19961;-66
2021/05/19 09:16:25;;;;;;;;;;;;;;;;;;5078841;28;20019;-68
2021/05/19 09:18:51;;;;;;;;;;;;;;;;;;5076388;28;19987;-67
2021/05/19 09:21:17;;;;;;;;;;;;;;;;;;5078874;28;20354;-68
2021/05/19 09:23:43;;;;;;;;;;;;;;;;;;5075594;28;20375;-66
2021/05/19 09:26:12;;;;;;;;;;;;;;;;;;5073575;28;19912;-69
2021/05/19 09:28:37;;;;;;;;;;;563.60;1536.00;;;;;;5076426;28;19915;-69
2021/05/19 09:31:03;;;;;;;;;;;;;;;;;;5076130;28;19909;-68
2021/05/19 09:33:29;;;;;;;;;;;;;;;;;;5078299;28;19909;-68
2021/05/19 09:35:55;;;;;;;;;;;;;;;;;;5075761;28;19923;-69
2021/05/19 09:38:21;;;;;;;;;;;;;;;;;;5073894;28;20353;-70
2021/05/19 09:40:47;;;;;;;;;;;;;;;;;;5060988;28;19999;-72
2021/05/19 09:43:13;;;;;;;;;;;;;;;;;;5086189;28;20007;-69
2021/05/19 09:45:41;;;;;;;;;;;;;;;;;;5078696;28;19915;-69
2021/05/19 09:48:07;;;;;;;;;;;;;;;;;;5072121;28;19970;-69
2021/05/19 09:50:33;;;;;;;;;;;;;;;;;;5084289;28;19909;-69
2021/05/19 09:52:59;;;;;;;;;;;;;;;;;;5087730;28;20299;-70
2021/05/19 09:55:24;;;;;;;;;;;589.70;1254.40;;;;;;5086326;28;20028;-70
2021/05/19 09:57:50;;;;;;;;;;;589.70;1254.40;;;;;;5085972;28;20002;-69
2021/05/19 10:00:20;;;;;;;;;;;614.40;1228.80;;;;;;5084384;28;19957;-69
2021/05/19 10:02:46;;;;;;;;;;;614.40;1254.40;;;;;;5056324;28;20033;-69
2021/05/19 10:05:14;;;;;;;;;;;614.60;1254.40;;;;;;5052922;28;19916;-69
2021/05/19 10:07:40;;;;;;;;;;;614.70;1228.80;;;;;;5057787;28;19909;-69
2021/05/19 10:10:06;;;;;;;;;;;614.70;1228.80;;;;;;5082472;28;19919;-68
2021/05/19 10:12:32;;;;;;;;;;;614.60;1228.80;;;;;;5053309;28;19920;-70
2021/05/19 10:15:01;;;;;;;;;;;614.60;1177.60;;;;;;5081643;28;20003;-69
2021/05/19 10:17:27;;;;;;;;;;;614.60;1177.60;;;;;;5081296;28;20021;-69
2021/05/19 10:19:57;;;;;;;;;;;614.40;1177.60;;;;;;5081962;28;19948;-70
2021/05/19 10:22:24;;;;;;;;;;;614.50;1177.60;;;;;;5087605;28;19923;-70
2021/05/19 10:24:57;;;;;;;;;;;614.50;1203.20;;;;;;5085828;28;20007;-71
2021/05/19 10:27:23;;;;;;;;;;;614.50;1203.20;;;;;;5075747;28;20321;-71
2021/05/19 10:29:56;;;;;;;;;;;614.60;1126.40;;;;;;5062858;28;19913;-66
2021/05/19 10:32:22;;;;;;;;;;;614.60;1152.00;;;;;;5052647;28;20409;-69
2021/05/19 10:34:59;;;;;;;;;;;614.70;1177.60;;;;;;5052976;28;19913;-71
2021/05/19 10:37:27;;;;;;;;;;;614.80;1228.80;;;;;;5055708;28;19927;-69
2021/05/19 10:40:19;;;;;;;;;;;614.80;1228.80;;;;;;5055640;28;19916;-70
2021/05/19 10:42:52;;;;;;;;;;;614.80;1203.20;;;;;;5054461;28;19913;-66
2021/05/19 10:45:18;;;;;;;;;;;615.00;1152.00;;;;;;5060291;28;20325;-67
2021/05/19 10:47:45;;;;;;;;;;;615.20;1203.20;;;;;;5055444;28;19913;-68
2021/05/19 10:50:19;;;;;;;;;;;;;;;;;;5068818;28;20353;-70
2021/05/19 10:58:29;;;;;;;;;;;640.20;1100.80;;;;;;5076878;28;19966;-67
2021/05/19 11:00:55;;;;;;;;;;;640.40;1100.80;;;;;;5077822;28;19924;-69
2021/05/19 11:03:20;;;;;;;;;;;640.50;1075.20;;;;;;5095720;28;19908;-69
2021/05/19 11:05:51;;;;;;;;;;;640.40;1100.80;;;;;;5095665;28;19908;-72
2021/05/19 11:08:24;;;;;;;;;;;640.50;1126.40;;;;;;5073397;28;19920;-72
2021/05/19 11:10:51;;;;;;;;;;;640.10;1152.00;;;;;;5074883;28;19912;-70
2021/05/19 11:13:21;;;;;;;;;;;640.10;1177.60;;;;;;5075444;28;19962;-71
2021/05/19 11:21:18;;;;;;;;;;;640.20;1152.00;;;;;;5075013;28;19916;-71
2021/05/19 11:24:01;;;;;;;;;;;640.20;1152.00;;;;;;5077033;28;19912;-69
2021/05/19 11:26:33;;;;;;;;;;;640.10;1177.60;;;;;;5082841;28;19923;-71
2021/05/19 11:28:59;;;;;;;;;;;640.20;1152.00;;;;;;5074948;28;19908;-70
2021/05/19 11:31:31;;;;;;;;;;;640.50;1100.80;;;;;;5086212;28;19909;-70
2021/05/19 11:33:59;;;;;;;;;;;640.70;1126.40;;;;;;5080156;28;20003;-70
2021/05/19 11:36:27;;;;;;;;;;;640.60;1152.00;;;;;;5083117;28;19920;-70
2021/05/19 11:38:53;;;;;;;;;;;640.60;1126.40;;;;;;5079207;28;19915;-71
2021/05/19 11:41:21;;;;;;;;;;;640.60;1177.60;;;;;;5082471;28;19930;-68
2021/05/19 11:43:47;;;;;;;;;;;640.70;1177.60;;;;;;5074275;28;19912;-70
2021/05/19 11:46:13;;;;;;;;;;;640.40;1177.60;;;;;;5073959;28;20433;-71
2021/05/19 11:48:39;;;;;;;;;;;640.10;1177.60;;;;;;5073972;28;19908;-72
2021/05/19 11:51:15;;;;;;;;;;;640.10;1177.60;;;;;;5074361;28;19916;-71
2021/05/19 11:53:53;;;;;;;;;;;615.30;1177.60;;;;;;5073550;28;19963;-70
2021/05/19 11:56:18;;;;;;;;;;;615.20;1152.00;;;;;;5055921;28;19921;-71
2021/05/19 11:58:44;;;;;;;;;;;614.90;1126.40;;;;;;5074103;28;20011;-70
2021/05/19 12:01:12;;;;;;;;;;;;;;;;;;5075061;28;19908;-70
2021/05/19 12:03:38;;;;;;;;;;;614.50;1382.40;;;;;;5074227;28;19915;-69
2021/05/19 12:06:05;;;;;;;;;;;589.70;1408.00;;;;;;5073869;28;19909;-70
2021/05/19 12:08:33;;;;;;;;;;;589.30;1433.60;;;;;;5074087;28;19909;-70
2021/05/19 12:11:06;;;;;;;;;;;589.20;1484.80;;;;;;5074054;28;19908;-70
2021/05/19 12:13:34;;;;;;;;;;;;;;;;;;5074350;28;19916;-70
2021/05/19 12:16:00;;;;;;;;;;;;;;;;;;5073769;28;20285;-70
2021/05/19 12:18:26;;;;;;;;;;;;;;;;;;5073577;28;19909;-71
2021/05/19 12:20:52;;;;;;;;;;;;;;;;;;5073747;28;19909;-71
2021/05/19 12:23:18;;;;;;;;;;;;;;;;;;5073100;28;19913;-71
2021/05/19 12:25:44;;;;;;;;;;;;;;;;;;5077880;28;19974;-69
2021/05/19 12:28:10;;;;;;;;;;;;;;;;;;5079972;28;19908;-70
2021/05/19 12:30:36;;;;;;;;;;;;;;;;;;5079631;28;19908;-71
2021/05/19 12:33:08;;;;;;;;;;;;;;;;;;5085364;28;20327;-71
2021/05/19 12:35:34;;;;;;;;;;;;;;;;;;5070690;28;19921;-71
2021/05/19 12:38:01;;;;;;;;;;;614.40;1612.80;;;;;;5083957;28;19912;-71
2021/05/19 12:40:29;;;;;;;;;;;589.70;1638.40;;;;;;5080679;28;19931;-71
2021/05/19 12:43:01;;;;;;;;;;;589.50;1587.20;;;;;;5082322;28;20045;-70
2021/05/19 12:45:31;;;;;;;;;;;589.50;1638.40;;;;;;5081749;28;19909;-70
2021/05/19 12:48:06;;;;;;;;;;;589.30;1536.00;;;;;;5079590;28;20006;-71
2021/05/19 12:50:36;;;;;;;;;;;589.40;1612.80;;;;;;5079472;28;20358;-70
2021/05/19 12:53:01;;;;;;;;;;;589.20;1587.20;;;;;;5081247;28;20399;-71
2021/05/19 12:55:27;;;;;;;;;;;589.10;1612.80;;;;;;5083054;28;19933;-71
2021/05/19 12:57:53;;;;;;;;;;;;;;;;;;5078607;28;19912;-70
2021/05/19 13:00:19;;;;;;;;;;;;;;;;;;5089726;28;19954;-70
2021/05/19 13:02:45;;;;;;;;;;;;;;;;;;5093423;28;19968;-71
2021/05/19 13:05:11;;;;;;;;;;;;;;;;;;5093635;28;20255;-70
2021/05/19 13:07:36;;;;;;;;;;;;;;;;;;5093352;28;19908;-70
2021/05/19 13:10:02;;;;;;;;;;;;;;;;;;5093443;28;20370;-71
2021/05/19 13:12:31;;;;;;;;;;;;;;;;;;5093242;28;19951;-71
2021/05/19 13:14:58;;;;;;;;;;;;;;;;;;5093225;28;19921;-70
2021/05/19 13:17:24;;;;;;;;;;;;;;;;;;5093197;28;20354;-71
2021/05/19 13:19:50;;;;;;;;;;;;;;;;;;5093090;28;19908;-72
2021/05/19 13:22:16;;;;;;;;;;;;;;;;;;5093097;28;19908;-73
2021/05/19 13:24:42;;;;;;;;;;;;;;;;;;5093028;28;19916;-69
2021/05/19 13:27:08;;;;;;;;;;;;;;;;;;5092955;28;19912;-72
2021/05/19 13:29:36;;;;;;;;;;;;;;;;;;5093041;28;19908;-70
2021/05/19 13:32:17;;;;;;;;;;;;;;;;;;5092980;28;19954;-71
2021/05/19 13:37:12;;;;;;;;;;;;;;;;;;5093211;28;20016;-70
2021/05/19 13:39:38;;;;;;;;;;;;;;;;;;5092831;28;19955;-69
2021/05/19 13:42:04;;;;;;;;;;;;;;;;;;5092759;28;19908;-69
2021/05/19 13:44:30;;;;;;;;;;;;;;;;;;5092786;28;19908;-70
2021/05/19 13:46:56;;;;;;;;;;;;;;;;;;5092688;28;19915;-70
2021/05/19 13:49:23;;;;;;;;;;;;;;;;;;5092930;28;19909;-70
2021/05/19 13:51:49;;;;;;;;;;;;;;;;;;5092867;28;20011;-70
2021/05/19 13:54:15;;;;;;;;;;;;;;;;;;5092790;28;19978;-70
2021/05/19 13:56:41;;;;;;;;;;;;;;;;;;5093167;28;20438;-70
2021/05/19 13:59:07;;;;;;;;;;;;;;;;;;5092651;28;19916;-70
2021/05/19 14:01:33;;;;;;;;;;;;;;;;;;5092883;28;20003;-70
2021/05/19 14:03:59;;;;;;;;;;;;;;;;;;5092644;28;19961;-70
2021/05/19 14:06:25;;;;;;;;;;;;;;;;;;5092393;28;19912;-70
2021/05/19 14:08:51;;;;;;;;;;;;;;;;;;5093041;28;19908;-70
2021/05/19 14:11:19;;;;;;;;;;;;;;;;;;5095605;28;19999;-69
2021/05/19 14:14:07;;;;;;;;;;;;;;;;;;5096608;28;19955;-69
2021/05/19 14:27:46;;;;;;;;;;;;;;;;;;5071644;28;19974;-68
2021/05/19 14:30:05;;;;;;;;;;;;;;;;;;5093183;28;20393;-69
2021/05/19 14:32:31;;;;;;;;;;;;;;;;;;5096359;28;19915;-68
2021/05/19 14:35:01;;;;;;;;;;;;;;;;;;5096304;28;19912;-69
2021/05/19 15:01:50;;;;;;;;;;;;;;;;;;5033573;28;19917;-70
2021/05/19 15:04:17;;;;;;;;;;;;;;;;;;5033434;28;19909;-69
2021/05/19 15:06:43;;;;;;;;;;;;;;;;;;5033322;28;19917;-69
2021/05/19 15:09:11;;;;;;;;;;;;;;;;;;5033447;28;19910;-72
2021/05/19 15:11:37;;;;;;;;;;;;;;;;;;5019285;28;20015;-70
2021/05/19 15:14:03;;;;;;;;;;;;;;;;;;5002437;28;20396;-69
2021/05/19 15:16:30;;;;;;;;;;;;;;;;;;5027884;28;19921;-70
2021/05/19 15:18:56;;;;;;;;;;;;;;;;;;5033155;28;19910;-70
2021/05/19 15:21:21;;;;;;;;;;;;;;;;;;5032318;28;19910;-70
2021/05/19 15:23:47;;;;;;;;;;;;;;;;;;5033070;28;19913;-69
2021/05/19 15:26:15;;;;;;;;;;;;;;;;;;5033016;28;19913;-70
2021/05/19 15:28:41;;;;;;;;;;;;;;;;;;5032976;28;19944;-69
2021/05/19 15:31:06;;;;;;;;;;;;;;;;;;5042850;28;19919;-69
2021/05/19 15:33:32;;;;;;;;;;;;;;;;;;5095135;28;20048;-70
2021/05/19 15:36:04;;;;;;;;;;;;;;;;;;5095300;28;20354;-69
2021/05/19 15:38:30;;;;;;;;;;;;;;;;;;5095016;28;19954;-70
2021/05/19 15:40:56;;;;;;;;;;;;;;;;;;5095071;28;19912;-69
2021/05/19 15:43:22;;;;;;;;;;;;;;;;;;5094979;28;19919;-68
2021/05/19 15:45:48;;;;;;;;;;;;;;;;;;5094745;28;20397;-69
2021/05/19 15:48:14;;;;;;;;;;;;;;;;;;5095292;28;20351;-69
2021/05/19 15:50:40;;;;;;;;;;;;;;;;;;5094842;28;20319;-69
2021/05/19 15:53:06;;;;;;;;;;;;;;;;;;5094872;28;20311;-69
2021/05/19 15:55:32;;;;;;;;;;;;;;;;;;5094461;28;19924;-69
2021/05/19 15:57:58;;;;;;;;;;;;;;;;;;5094702;28;19916;-69
2021/05/19 16:00:24;;;;;;;;;;;;;;;;;;5094839;28;19912;-68
2021/05/19 16:02:50;;;;;;;;;;;;;;;;;;5094724;28;19947;-69
2021/05/19 16:05:16;;;;;;;;;;;;;;;;;;5094707;28;19947;-68
2021/05/19 16:07:42;;;;;;;;;;;;;;;;;;5094478;28;19983;-69
2021/05/19 16:10:08;;;;;;;;;;;;;;;;;;5094540;28;19908;-68
2021/05/19 16:12:34;;;;;;;;;;;;;;;;;;5094524;28;19995;-66
2021/05/19 16:15:00;;;;;;;;;;;;;;;;;;5094903;28;20269;-69
2021/05/19 16:17:25;;;;;;;;;;;;;;;;;;5094257;28;19916;-66
2021/05/19 16:19:51;;;;;;;;;;;;;;;;;;5094219;28;20460;-66
2021/05/19 16:22:17;;;;;;;;;;;;;;;;;;5094322;28;19998;-69
2021/05/19 16:24:43;;;;;;;;;;;;;;;;;;5094501;28;20381;-66
2021/05/19 16:27:09;;;;;;;;;;;;;;;;;;5094247;28;19913;-67
2021/05/19 16:29:49;;;;;;;;;;;;;;;;;;5093975;28;19912;-66